sensor_id;sensor_type;location;lat;lon;timestamp;P1;durP1;ratioP1;P2;durP2;ratioP2
59734;SDS011;64362;45.620;4.920;2022-10-26T00:00:38;8.27;;;4.45;;
59734;SDS011;64362;45.620;4.920;2022-10-26T00:03:03;6.00;;;4.05;;
59734;SDS011;64362;45.620;4.920;2022-10-26T00:05:31;7.25;;;4.15;;
59734;SDS011;64362;45.620;4.920;2022-10-26T00:07:57;6.95;;;4.10;;
59734;SDS011;64362;45.620;4.920;2022-10-26T00:10:22;8.18;;;4.20;;
59734;SDS011;64362;45.620;4.920;2022-10-26T00:12:49;7.90;;;4.20;;
59734;SDS011;64362;45.620;4.920;2022-10-26T00:15:15;6.28;;;3.83;;
59734;SDS011;64362;45.620;4.920;2022-10-26T00:17:41;8.13;;;4.18;;
59734;SDS011;64362;45.620;4.920;2022-10-26T00:20:07;7.25;;;4.07;;
59734;SDS011;64362;45.620;4.920;2022-10-26T00:22:33;6.55;;;4.25;;
59734;SDS011;64362;45.620;4.920;2022-10-26T00:24:58;6.05;;;3.85;;
59734;SDS011;64362;45.620;4.920;2022-10-26T00:27:24;6.65;;;4.50;;
59734;SDS011;64362;45.620;4.920;2022-10-26T00:29:49;7.57;;;4.00;;
59734;SDS011;64362;45.620;4.920;2022-10-26T00:32:15;8.00;;;4.45;;
59734;SDS011;64362;45.620;4.920;2022-10-26T00:34:40;8.38;;;3.85;;
59734;SDS011;64362;45.620;4.920;2022-10-26T00:37:06;7.93;;;4.30;;
59734;SDS011;64362;45.620;4.920;2022-10-26T00:39:31;7.85;;;3.72;;
59734;SDS011;64362;45.620;4.920;2022-10-26T00:41:57;6.72;;;3.35;;
59734;SDS011;64362;45.620;4.920;2022-10-26T00:49:37;8.45;;;4.18;;
59734;SDS011;64362;45.620;4.920;2022-10-26T00:52:03;6.07;;;3.85;;
59734;SDS011;64362;45.620;4.920;2022-10-26T00:54:28;7.85;;;3.58;;
59734;SDS011;64362;45.620;4.920;2022-10-26T00:56:54;6.15;;;3.67;;
59734;SDS011;64362;45.620;4.920;2022-10-26T00:59:19;8.77;;;3.78;;
59734;SDS011;64362;45.620;4.920;2022-10-26T01:01:46;7.70;;;3.70;;
59734;SDS011;64362;45.620;4.920;2022-10-26T01:04:12;8.27;;;4.03;;
59734;SDS011;64362;45.620;4.920;2022-10-26T01:06:38;7.53;;;3.70;;
59734;SDS011;64362;45.620;4.920;2022-10-26T01:09:05;6.65;;;3.50;;
59734;SDS011;64362;45.620;4.920;2022-10-26T01:11:31;7.25;;;3.58;;
59734;SDS011;64362;45.620;4.920;2022-10-26T01:13:57;7.72;;;3.67;;
59734;SDS011;64362;45.620;4.920;2022-10-26T01:16:34;7.13;;;3.67;;
59734;SDS011;64362;45.620;4.920;2022-10-26T01:22:21;5.95;;;3.13;;
59734;SDS011;64362;45.620;4.920;2022-10-26T01:33:04;9.90;;;3.60;;
59734;SDS011;64362;45.620;4.920;2022-10-26T01:38:25;6.38;;;3.40;;
59734;SDS011;64362;45.620;4.920;2022-10-26T01:41:05;10.43;;;4.13;;
59734;SDS011;64362;45.620;4.920;2022-10-26T01:43:36;7.03;;;3.60;;
59734;SDS011;64362;45.620;4.920;2022-10-26T01:46:04;6.63;;;3.50;;
59734;SDS011;64362;45.620;4.920;2022-10-26T01:48:31;9.18;;;4.35;;
59734;SDS011;64362;45.620;4.920;2022-10-26T01:50:57;4.55;;;3.60;;
59734;SDS011;64362;45.620;4.920;2022-10-26T01:53:24;7.70;;;3.78;;
59734;SDS011;64362;45.620;4.920;2022-10-26T01:55:52;8.18;;;4.03;;
59734;SDS011;64362;45.620;4.920;2022-10-26T01:58:35;6.80;;;3.30;;
59734;SDS011;64362;45.620;4.920;2022-10-26T02:01:28;6.85;;;3.60;;
59734;SDS011;64362;45.620;4.920;2022-10-26T02:07:01;8.65;;;3.72;;
59734;SDS011;64362;45.620;4.920;2022-10-26T02:11:58;7.85;;;3.47;;
59734;SDS011;64362;45.620;4.920;2022-10-26T02:14:32;6.82;;;4.10;;
59734;SDS011;64362;45.620;4.920;2022-10-26T02:17:15;6.88;;;3.65;;
59734;SDS011;64362;45.620;4.920;2022-10-26T02:20:05;6.90;;;3.63;;
59734;SDS011;64362;45.620;4.920;2022-10-26T02:22:38;8.45;;;3.85;;
59734;SDS011;64362;45.620;4.920;2022-10-26T02:25:08;4.82;;;3.33;;
59734;SDS011;64362;45.620;4.920;2022-10-26T02:27:37;8.02;;;3.90;;
59734;SDS011;64362;45.620;4.920;2022-10-26T02:30:05;7.43;;;3.90;;
59734;SDS011;64362;45.620;4.920;2022-10-26T02:32:32;10.52;;;3.67;;
59734;SDS011;64362;45.620;4.920;2022-10-26T02:35:00;9.15;;;4.00;;
59734;SDS011;64362;45.620;4.920;2022-10-26T02:37:26;7.00;;;3.88;;
59734;SDS011;64362;45.620;4.920;2022-10-26T02:39:52;8.43;;;3.70;;
59734;SDS011;64362;45.620;4.920;2022-10-26T02:42:19;7.35;;;3.85;;
59734;SDS011;64362;45.620;4.920;2022-10-26T02:44:47;7.70;;;3.85;;
59734;SDS011;64362;45.620;4.920;2022-10-26T02:47:15;8.63;;;3.80;;
59734;SDS011;64362;45.620;4.920;2022-10-26T02:49:41;7.20;;;3.88;;
59734;SDS011;64362;45.620;4.920;2022-10-26T02:54:47;8.70;;;3.75;;
59734;SDS011;64362;45.620;4.920;2022-10-26T02:57:18;8.20;;;4.00;;
59734;SDS011;64362;45.620;4.920;2022-10-26T02:59:51;5.85;;;3.50;;
59734;SDS011;64362;45.620;4.920;2022-10-26T03:02:18;6.63;;;3.42;;
59734;SDS011;64362;45.620;4.920;2022-10-26T03:04:43;7.68;;;4.18;;
59734;SDS011;64362;45.620;4.920;2022-10-26T03:07:09;7.13;;;3.60;;
59734;SDS011;64362;45.620;4.920;2022-10-26T03:09:34;9.52;;;3.38;;
59734;SDS011;64362;45.620;4.920;2022-10-26T03:12:00;7.25;;;4.30;;
59734;SDS011;64362;45.620;4.920;2022-10-26T03:14:25;5.35;;;3.45;;
59734;SDS011;64362;45.620;4.920;2022-10-26T03:16:51;8.48;;;4.15;;
59734;SDS011;64362;45.620;4.920;2022-10-26T03:19:16;8.50;;;4.22;;
59734;SDS011;64362;45.620;4.920;2022-10-26T03:21:42;8.63;;;3.95;;
59734;SDS011;64362;45.620;4.920;2022-10-26T03:24:07;7.72;;;3.92;;
59734;SDS011;64362;45.620;4.920;2022-10-26T03:26:33;12.30;;;4.78;;
59734;SDS011;64362;45.620;4.920;2022-10-26T03:28:59;7.07;;;3.75;;
59734;SDS011;64362;45.620;4.920;2022-10-26T03:31:24;6.47;;;3.90;;
59734;SDS011;64362;45.620;4.920;2022-10-26T03:33:50;7.45;;;3.92;;
59734;SDS011;64362;45.620;4.920;2022-10-26T03:36:15;8.20;;;4.22;;
59734;SDS011;64362;45.620;4.920;2022-10-26T03:38:41;7.80;;;4.00;;
59734;SDS011;64362;45.620;4.920;2022-10-26T03:41:06;5.72;;;3.38;;
59734;SDS011;64362;45.620;4.920;2022-10-26T03:43:32;8.65;;;4.03;;
59734;SDS011;64362;45.620;4.920;2022-10-26T03:45:57;7.97;;;4.60;;
59734;SDS011;64362;45.620;4.920;2022-10-26T03:48:22;7.30;;;3.78;;
59734;SDS011;64362;45.620;4.920;2022-10-26T03:50:48;8.35;;;4.28;;
59734;SDS011;64362;45.620;4.920;2022-10-26T03:53:13;8.32;;;3.97;;
59734;SDS011;64362;45.620;4.920;2022-10-26T03:55:42;9.15;;;4.28;;
59734;SDS011;64362;45.620;4.920;2022-10-26T03:58:08;8.50;;;4.18;;
59734;SDS011;64362;45.620;4.920;2022-10-26T04:00:33;8.52;;;4.32;;
59734;SDS011;64362;45.620;4.920;2022-10-26T04:02:59;7.78;;;4.30;;
59734;SDS011;64362;45.620;4.920;2022-10-26T04:05:25;7.60;;;3.88;;
59734;SDS011;64362;45.620;4.920;2022-10-26T04:07:55;7.30;;;4.10;;
59734;SDS011;64362;45.620;4.920;2022-10-26T04:10:21;11.10;;;4.72;;
59734;SDS011;64362;45.620;4.920;2022-10-26T04:12:48;8.23;;;4.47;;
59734;SDS011;64362;45.620;4.920;2022-10-26T04:15:13;7.93;;;4.68;;
59734;SDS011;64362;45.620;4.920;2022-10-26T04:17:39;8.77;;;4.50;;
59734;SDS011;64362;45.620;4.920;2022-10-26T04:20:05;9.27;;;4.22;;
59734;SDS011;64362;45.620;4.920;2022-10-26T04:22:31;7.28;;;4.50;;
59734;SDS011;64362;45.620;4.920;2022-10-26T04:24:56;7.68;;;4.35;;
59734;SDS011;64362;45.620;4.920;2022-10-26T04:27:21;6.97;;;4.05;;
59734;SDS011;64362;45.620;4.920;2022-10-26T04:29:47;8.05;;;4.28;;
59734;SDS011;64362;45.620;4.920;2022-10-26T04:32:12;7.03;;;4.63;;
59734;SDS011;64362;45.620;4.920;2022-10-26T04:34:38;7.68;;;4.43;;
59734;SDS011;64362;45.620;4.920;2022-10-26T04:37:03;8.65;;;4.30;;
59734;SDS011;64362;45.620;4.920;2022-10-26T04:39:29;9.43;;;4.57;;
59734;SDS011;64362;45.620;4.920;2022-10-26T04:41:54;8.32;;;4.63;;
59734;SDS011;64362;45.620;4.920;2022-10-26T04:44:20;10.02;;;4.85;;
59734;SDS011;64362;45.620;4.920;2022-10-26T04:46:45;10.05;;;4.80;;
59734;SDS011;64362;45.620;4.920;2022-10-26T04:49:11;9.02;;;4.55;;
59734;SDS011;64362;45.620;4.920;2022-10-26T04:51:36;8.57;;;4.38;;
59734;SDS011;64362;45.620;4.920;2022-10-26T04:54:01;9.90;;;4.70;;
59734;SDS011;64362;45.620;4.920;2022-10-26T04:56:27;8.90;;;4.93;;
59734;SDS011;64362;45.620;4.920;2022-10-26T04:58:53;9.38;;;4.75;;
59734;SDS011;64362;45.620;4.920;2022-10-26T05:01:19;9.25;;;4.70;;
59734;SDS011;64362;45.620;4.920;2022-10-26T05:03:47;8.68;;;4.57;;
59734;SDS011;64362;45.620;4.920;2022-10-26T05:06:14;11.15;;;5.00;;
59734;SDS011;64362;45.620;4.920;2022-10-26T05:08:39;8.65;;;4.80;;
59734;SDS011;64362;45.620;4.920;2022-10-26T05:11:05;8.68;;;4.22;;
59734;SDS011;64362;45.620;4.920;2022-10-26T05:13:30;10.57;;;4.85;;
59734;SDS011;64362;45.620;4.920;2022-10-26T05:15:56;7.22;;;4.40;;
59734;SDS011;64362;45.620;4.920;2022-10-26T05:18:21;11.00;;;5.00;;
59734;SDS011;64362;45.620;4.920;2022-10-26T05:20:47;12.20;;;4.75;;
59734;SDS011;64362;45.620;4.920;2022-10-26T05:23:14;10.88;;;4.85;;
59734;SDS011;64362;45.620;4.920;2022-10-26T05:25:42;9.02;;;4.63;;
59734;SDS011;64362;45.620;4.920;2022-10-26T05:28:09;10.60;;;4.75;;
59734;SDS011;64362;45.620;4.920;2022-10-26T05:30:37;9.68;;;4.75;;
59734;SDS011;64362;45.620;4.920;2022-10-26T05:33:04;7.22;;;4.88;;
59734;SDS011;64362;45.620;4.920;2022-10-26T05:35:30;11.02;;;4.97;;
59734;SDS011;64362;45.620;4.920;2022-10-26T05:37:55;8.27;;;4.60;;
59734;SDS011;64362;45.620;4.920;2022-10-26T05:40:21;8.98;;;4.80;;
59734;SDS011;64362;45.620;4.920;2022-10-26T05:42:47;9.13;;;5.25;;
59734;SDS011;64362;45.620;4.920;2022-10-26T05:45:12;9.40;;;4.55;;
59734;SDS011;64362;45.620;4.920;2022-10-26T05:47:38;11.60;;;4.97;;
59734;SDS011;64362;45.620;4.920;2022-10-26T05:50:05;9.82;;;4.90;;
59734;SDS011;64362;45.620;4.920;2022-10-26T05:52:36;8.57;;;4.43;;
59734;SDS011;64362;45.620;4.920;2022-10-26T05:55:09;9.07;;;4.32;;
59734;SDS011;64362;45.620;4.920;2022-10-26T05:57:36;12.88;;;4.82;;
59734;SDS011;64362;45.620;4.920;2022-10-26T06:00:06;11.70;;;5.20;;
59734;SDS011;64362;45.620;4.920;2022-10-26T06:05:18;10.45;;;5.10;;
59734;SDS011;64362;45.620;4.920;2022-10-26T06:07:46;8.43;;;5.05;;
59734;SDS011;64362;45.620;4.920;2022-10-26T06:10:12;9.30;;;5.32;;
59734;SDS011;64362;45.620;4.920;2022-10-26T06:12:38;10.88;;;4.60;;
59734;SDS011;64362;45.620;4.920;2022-10-26T06:15:04;10.75;;;4.78;;
59734;SDS011;64362;45.620;4.920;2022-10-26T06:25:31;11.40;;;5.38;;
59734;SDS011;64362;45.620;4.920;2022-10-26T06:28:12;9.27;;;5.15;;
59734;SDS011;64362;45.620;4.920;2022-10-26T06:30:45;9.75;;;4.97;;
59734;SDS011;64362;45.620;4.920;2022-10-26T06:33:11;11.10;;;5.70;;
59734;SDS011;64362;45.620;4.920;2022-10-26T06:38:08;9.55;;;5.80;;
59734;SDS011;64362;45.620;4.920;2022-10-26T06:40:39;12.32;;;6.05;;
59734;SDS011;64362;45.620;4.920;2022-10-26T06:43:26;10.88;;;5.40;;
59734;SDS011;64362;45.620;4.920;2022-10-26T06:45:59;13.52;;;5.25;;
59734;SDS011;64362;45.620;4.920;2022-10-26T06:48:29;17.15;;;5.82;;
59734;SDS011;64362;45.620;4.920;2022-10-26T06:50:59;20.30;;;6.28;;
59734;SDS011;64362;45.620;4.920;2022-10-26T06:55:50;14.35;;;5.75;;
59734;SDS011;64362;45.620;4.920;2022-10-26T06:58:17;12.55;;;5.97;;
59734;SDS011;64362;45.620;4.920;2022-10-26T07:00:48;9.43;;;5.40;;
59734;SDS011;64362;45.620;4.920;2022-10-26T07:03:14;12.43;;;5.88;;
59734;SDS011;64362;45.620;4.920;2022-10-26T07:05:40;12.07;;;5.80;;
59734;SDS011;64362;45.620;4.920;2022-10-26T07:08:05;15.55;;;6.82;;
59734;SDS011;64362;45.620;4.920;2022-10-26T07:10:31;13.07;;;6.10;;
59734;SDS011;64362;45.620;4.920;2022-10-26T07:12:59;10.23;;;5.35;;
59734;SDS011;64362;45.620;4.920;2022-10-26T07:15:24;12.80;;;5.95;;
59734;SDS011;64362;45.620;4.920;2022-10-26T07:17:50;12.18;;;6.03;;
59734;SDS011;64362;45.620;4.920;2022-10-26T07:20:16;13.23;;;6.05;;
59734;SDS011;64362;45.620;4.920;2022-10-26T07:22:43;11.88;;;5.95;;
59734;SDS011;64362;45.620;4.920;2022-10-26T07:25:09;13.73;;;5.75;;
59734;SDS011;64362;45.620;4.920;2022-10-26T07:27:36;13.43;;;5.85;;
59734;SDS011;64362;45.620;4.920;2022-10-26T07:30:02;11.48;;;5.30;;
59734;SDS011;64362;45.620;4.920;2022-10-26T07:32:28;13.20;;;6.10;;
59734;SDS011;64362;45.620;4.920;2022-10-26T07:34:54;14.10;;;6.00;;
59734;SDS011;64362;45.620;4.920;2022-10-26T07:37:20;12.40;;;5.13;;
59734;SDS011;64362;45.620;4.920;2022-10-26T07:39:45;13.95;;;6.05;;
59734;SDS011;64362;45.620;4.920;2022-10-26T07:42:10;16.15;;;6.85;;
59734;SDS011;64362;45.620;4.920;2022-10-26T07:44:36;14.38;;;5.80;;
59734;SDS011;64362;45.620;4.920;2022-10-26T07:47:01;14.30;;;5.22;;
59734;SDS011;64362;45.620;4.920;2022-10-26T07:49:27;11.95;;;5.78;;
59734;SDS011;64362;45.620;4.920;2022-10-26T07:51:52;12.20;;;5.80;;
59734;SDS011;64362;45.620;4.920;2022-10-26T07:54:18;12.98;;;5.57;;
59734;SDS011;64362;45.620;4.920;2022-10-26T07:56:43;12.63;;;5.82;;
59734;SDS011;64362;45.620;4.920;2022-10-26T07:59:10;14.05;;;5.45;;
59734;SDS011;64362;45.620;4.920;2022-10-26T08:01:37;15.52;;;6.22;;
59734;SDS011;64362;45.620;4.920;2022-10-26T08:04:02;10.73;;;5.35;;
59734;SDS011;64362;45.620;4.920;2022-10-26T08:06:28;17.70;;;7.05;;
59734;SDS011;64362;45.620;4.920;2022-10-26T08:08:53;11.10;;;6.00;;
59734;SDS011;64362;45.620;4.920;2022-10-26T08:11:18;15.07;;;6.78;;
59734;SDS011;64362;45.620;4.920;2022-10-26T08:13:44;12.02;;;6.05;;
59734;SDS011;64362;45.620;4.920;2022-10-26T08:16:10;19.23;;;6.63;;
59734;SDS011;64362;45.620;4.920;2022-10-26T08:18:35;16.92;;;6.65;;
59734;SDS011;64362;45.620;4.920;2022-10-26T08:21:02;15.70;;;6.43;;
59734;SDS011;64362;45.620;4.920;2022-10-26T08:23:29;17.35;;;7.05;;
59734;SDS011;64362;45.620;4.920;2022-10-26T08:25:58;15.48;;;6.40;;
59734;SDS011;64362;45.620;4.920;2022-10-26T08:28:24;14.63;;;6.70;;
59734;SDS011;64362;45.620;4.920;2022-10-26T08:30:50;21.92;;;6.65;;
59734;SDS011;64362;45.620;4.920;2022-10-26T08:33:15;17.33;;;6.63;;
59734;SDS011;64362;45.620;4.920;2022-10-26T08:35:41;13.77;;;6.15;;
59734;SDS011;64362;45.620;4.920;2022-10-26T08:38:06;13.73;;;6.70;;
59734;SDS011;64362;45.620;4.920;2022-10-26T08:40:33;14.50;;;6.88;;
59734;SDS011;64362;45.620;4.920;2022-10-26T08:43:03;16.40;;;6.55;;
59734;SDS011;64362;45.620;4.920;2022-10-26T08:45:34;17.10;;;6.20;;
59734;SDS011;64362;45.620;4.920;2022-10-26T08:48:09;13.25;;;6.15;;
59734;SDS011;64362;45.620;4.920;2022-10-26T08:50:40;19.17;;;7.57;;
59734;SDS011;64362;45.620;4.920;2022-10-26T08:55:39;15.48;;;6.22;;
59734;SDS011;64362;45.620;4.920;2022-10-26T08:58:10;18.10;;;5.90;;
59734;SDS011;64362;45.620;4.920;2022-10-26T09:00:39;13.65;;;6.43;;
59734;SDS011;64362;45.620;4.920;2022-10-26T09:03:14;14.35;;;6.68;;
59734;SDS011;64362;45.620;4.920;2022-10-26T09:06:30;17.17;;;6.53;;
59734;SDS011;64362;45.620;4.920;2022-10-26T09:08:47;14.77;;;6.53;;
59734;SDS011;64362;45.620;4.920;2022-10-26T09:14:23;15.55;;;7.15;;
59734;SDS011;64362;45.620;4.920;2022-10-26T09:24:56;15.15;;;6.53;;
59734;SDS011;64362;45.620;4.920;2022-10-26T09:29:52;15.40;;;6.57;;
59734;SDS011;64362;45.620;4.920;2022-10-26T09:32:40;12.40;;;5.72;;
59734;SDS011;64362;45.620;4.920;2022-10-26T09:35:12;17.05;;;6.53;;
59734;SDS011;64362;45.620;4.920;2022-10-26T09:37:41;15.13;;;6.57;;
59734;SDS011;64362;45.620;4.920;2022-10-26T09:45:43;11.10;;;6.43;;
59734;SDS011;64362;45.620;4.920;2022-10-26T09:50:39;13.45;;;6.47;;
59734;SDS011;64362;45.620;4.920;2022-10-26T09:53:08;12.25;;;6.13;;
59734;SDS011;64362;45.620;4.920;2022-10-26T09:55:37;13.55;;;6.10;;
59734;SDS011;64362;45.620;4.920;2022-10-26T09:58:05;13.65;;;6.05;;
59734;SDS011;64362;45.620;4.920;2022-10-26T10:00:37;12.07;;;6.85;;
59734;SDS011;64362;45.620;4.920;2022-10-26T10:03:15;15.00;;;6.88;;
59734;SDS011;64362;45.620;4.920;2022-10-26T10:05:45;15.85;;;6.97;;
59734;SDS011;64362;45.620;4.920;2022-10-26T10:08:14;15.80;;;7.50;;
59734;SDS011;64362;45.620;4.920;2022-10-26T10:10:54;18.00;;;7.82;;
59734;SDS011;64362;45.620;4.920;2022-10-26T10:13:26;15.05;;;7.93;;
59734;SDS011;64362;45.620;4.920;2022-10-26T10:15:53;14.77;;;7.57;;
59734;SDS011;64362;45.620;4.920;2022-10-26T10:18:21;15.43;;;8.07;;
59734;SDS011;64362;45.620;4.920;2022-10-26T10:20:54;16.85;;;8.13;;
59734;SDS011;64362;45.620;4.920;2022-10-26T10:24:19;12.45;;;7.70;;
59734;SDS011;64362;45.620;4.920;2022-10-26T10:26:16;16.02;;;8.20;;
59734;SDS011;64362;45.620;4.920;2022-10-26T10:28:42;15.27;;;8.32;;
59734;SDS011;64362;45.620;4.920;2022-10-26T10:31:21;17.27;;;8.23;;
59734;SDS011;64362;45.620;4.920;2022-10-26T10:33:54;15.02;;;8.25;;
59734;SDS011;64362;45.620;4.920;2022-10-26T10:36:20;16.67;;;7.88;;
59734;SDS011;64362;45.620;4.920;2022-10-26T10:38:47;16.92;;;7.90;;
59734;SDS011;64362;45.620;4.920;2022-10-26T10:41:18;12.85;;;8.30;;
59734;SDS011;64362;45.620;4.920;2022-10-26T10:44:06;13.75;;;7.88;;
59734;SDS011;64362;45.620;4.920;2022-10-26T10:46:39;13.93;;;7.47;;
59734;SDS011;64362;45.620;4.920;2022-10-26T10:49:06;13.73;;;7.68;;
59734;SDS011;64362;45.620;4.920;2022-10-26T10:51:41;13.00;;;6.60;;
59734;SDS011;64362;45.620;4.920;2022-10-26T10:54:22;15.55;;;7.78;;
59734;SDS011;64362;45.620;4.920;2022-10-26T10:56:57;12.18;;;7.20;;
59734;SDS011;64362;45.620;4.920;2022-10-26T10:59:55;15.98;;;6.95;;
59734;SDS011;64362;45.620;4.920;2022-10-26T11:02:27;12.98;;;7.38;;
59734;SDS011;64362;45.620;4.920;2022-10-26T11:07:53;15.25;;;7.03;;
59734;SDS011;64362;45.620;4.920;2022-10-26T11:10:45;14.30;;;7.10;;
59734;SDS011;64362;45.620;4.920;2022-10-26T11:13:16;12.80;;;7.45;;
59734;SDS011;64362;45.620;4.920;2022-10-26T11:15:51;10.57;;;6.30;;
59734;SDS011;64362;45.620;4.920;2022-10-26T11:18:42;14.95;;;6.60;;
59734;SDS011;64362;45.620;4.920;2022-10-26T11:21:14;15.85;;;6.65;;
59734;SDS011;64362;45.620;4.920;2022-10-26T11:24:06;12.85;;;6.20;;
59734;SDS011;64362;45.620;4.920;2022-10-26T11:29:14;15.35;;;6.72;;
59734;SDS011;64362;45.620;4.920;2022-10-26T11:31:49;14.32;;;6.57;;
59734;SDS011;64362;45.620;4.920;2022-10-26T11:34:24;11.80;;;6.60;;
59734;SDS011;64362;45.620;4.920;2022-10-26T11:36:58;12.38;;;6.85;;
59734;SDS011;64362;45.620;4.920;2022-10-26T11:39:37;17.10;;;6.72;;
59734;SDS011;64362;45.620;4.920;2022-10-26T11:42:20;13.60;;;6.32;;
59734;SDS011;64362;45.620;4.920;2022-10-26T11:47:18;11.93;;;6.03;;
59734;SDS011;64362;45.620;4.920;2022-10-26T11:49:52;15.48;;;6.47;;
59734;SDS011;64362;45.620;4.920;2022-10-26T11:52:29;14.95;;;7.28;;
59734;SDS011;64362;45.620;4.920;2022-10-26T11:55:00;14.75;;;7.70;;
59734;SDS011;64362;45.620;4.920;2022-10-26T11:57:29;15.65;;;7.13;;
59734;SDS011;64362;45.620;4.920;2022-10-26T12:00:00;11.07;;;6.00;;
59734;SDS011;64362;45.620;4.920;2022-10-26T12:02:29;15.38;;;7.05;;
59734;SDS011;64362;45.620;4.920;2022-10-26T12:08:02;13.15;;;6.90;;
59734;SDS011;64362;45.620;4.920;2022-10-26T12:10:34;14.48;;;6.63;;
59734;SDS011;64362;45.620;4.920;2022-10-26T12:18:45;14.95;;;7.05;;
59734;SDS011;64362;45.620;4.920;2022-10-26T12:21:16;16.63;;;6.05;;
59734;SDS011;64362;45.620;4.920;2022-10-26T12:23:52;13.63;;;6.45;;
59734;SDS011;64362;45.620;4.920;2022-10-26T12:28:48;16.50;;;6.05;;
59734;SDS011;64362;45.620;4.920;2022-10-26T12:33:59;17.08;;;6.45;;
59734;SDS011;64362;45.620;4.920;2022-10-26T12:39:31;14.82;;;6.50;;
59734;SDS011;64362;45.620;4.920;2022-10-26T12:44:34;14.60;;;5.97;;
59734;SDS011;64362;45.620;4.920;2022-10-26T12:47:04;13.00;;;6.07;;
59734;SDS011;64362;45.620;4.920;2022-10-26T12:55:27;15.70;;;6.05;;
59734;SDS011;64362;45.620;4.920;2022-10-26T13:09:12;10.68;;;5.63;;
59734;SDS011;64362;45.620;4.920;2022-10-26T13:11:45;14.40;;;6.47;;
59734;SDS011;64362;45.620;4.920;2022-10-26T13:14:17;15.07;;;5.85;;
59734;SDS011;64362;45.620;4.920;2022-10-26T13:16:55;12.85;;;5.28;;
59734;SDS011;64362;45.620;4.920;2022-10-26T13:19:24;15.30;;;6.38;;
59734;SDS011;64362;45.620;4.920;2022-10-26T13:21:51;15.05;;;5.68;;
59734;SDS011;64362;45.620;4.920;2022-10-26T13:24:18;11.88;;;5.65;;
59734;SDS011;64362;45.620;4.920;2022-10-26T13:29:12;16.13;;;5.88;;
59734;SDS011;64362;45.620;4.920;2022-10-26T13:36:49;12.25;;;5.80;;
59734;SDS011;64362;45.620;4.920;2022-10-26T13:42:20;15.85;;;5.25;;
59734;SDS011;64362;45.620;4.920;2022-10-26T13:44:58;16.85;;;5.05;;
59734;SDS011;64362;45.620;4.920;2022-10-26T13:50:11;12.80;;;5.18;;
59734;SDS011;64362;45.620;4.920;2022-10-26T13:52:41;13.05;;;5.20;;
59734;SDS011;64362;45.620;4.920;2022-10-26T13:55:09;12.80;;;5.15;;
59734;SDS011;64362;45.620;4.920;2022-10-26T14:00:58;15.82;;;5.38;;
59734;SDS011;64362;45.620;4.920;2022-10-26T14:03:25;10.00;;;5.07;;
59734;SDS011;64362;45.620;4.920;2022-10-26T14:05:50;13.75;;;4.78;;
59734;SDS011;64362;45.620;4.920;2022-10-26T14:08:16;12.13;;;5.07;;
59734;SDS011;64362;45.620;4.920;2022-10-26T14:10:47;17.50;;;4.85;;
59734;SDS011;64362;45.620;4.920;2022-10-26T14:13:17;14.50;;;4.43;;
59734;SDS011;64362;45.620;4.920;2022-10-26T14:15:46;14.82;;;5.07;;
59734;SDS011;64362;45.620;4.920;2022-10-26T14:18:15;12.82;;;4.47;;
59734;SDS011;64362;45.620;4.920;2022-10-26T14:20:45;14.48;;;4.57;;
59734;SDS011;64362;45.620;4.920;2022-10-26T14:23:33;11.00;;;4.07;;
59734;SDS011;64362;45.620;4.920;2022-10-26T14:25:59;16.00;;;4.55;;
59734;SDS011;64362;45.620;4.920;2022-10-26T14:28:29;12.32;;;4.50;;
59734;SDS011;64362;45.620;4.920;2022-10-26T14:31:12;12.30;;;4.00;;
59734;SDS011;64362;45.620;4.920;2022-10-26T14:33:43;13.27;;;4.25;;
59734;SDS011;64362;45.620;4.920;2022-10-26T14:36:08;11.77;;;4.03;;
59734;SDS011;64362;45.620;4.920;2022-10-26T14:38:36;11.60;;;4.32;;
59734;SDS011;64362;45.620;4.920;2022-10-26T14:41:07;13.93;;;4.28;;
59734;SDS011;64362;45.620;4.920;2022-10-26T14:43:32;11.50;;;4.00;;
59734;SDS011;64362;45.620;4.920;2022-10-26T14:45:58;10.88;;;4.45;;
59734;SDS011;64362;45.620;4.920;2022-10-26T14:51:00;13.15;;;5.03;;
59734;SDS011;64362;45.620;4.920;2022-10-26T14:53:32;12.90;;;4.88;;
59734;SDS011;64362;45.620;4.920;2022-10-26T14:56:00;12.50;;;4.30;;
59734;SDS011;64362;45.620;4.920;2022-10-26T14:58:28;9.27;;;4.45;;
59734;SDS011;64362;45.620;4.920;2022-10-26T15:03:46;11.27;;;4.07;;
59734;SDS011;64362;45.620;4.920;2022-10-26T15:06:32;13.75;;;4.35;;
59734;SDS011;64362;45.620;4.920;2022-10-26T15:09:01;12.35;;;3.83;;
59734;SDS011;64362;45.620;4.920;2022-10-26T15:11:29;9.20;;;3.70;;
59734;SDS011;64362;45.620;4.920;2022-10-26T15:13:56;11.05;;;4.28;;
59734;SDS011;64362;45.620;4.920;2022-10-26T15:16:23;12.77;;;4.13;;
59734;SDS011;64362;45.620;4.920;2022-10-26T15:18:51;13.45;;;4.28;;
59734;SDS011;64362;45.620;4.920;2022-10-26T15:23:48;9.13;;;3.97;;
59734;SDS011;64362;45.620;4.920;2022-10-26T15:26:14;10.85;;;3.95;;
59734;SDS011;64362;45.620;4.920;2022-10-26T15:28:40;13.45;;;4.57;;
59734;SDS011;64362;45.620;4.920;2022-10-26T15:33:39;14.02;;;4.82;;
59734;SDS011;64362;45.620;4.920;2022-10-26T15:38:31;11.40;;;4.68;;
59734;SDS011;64362;45.620;4.920;2022-10-26T15:40:57;12.13;;;4.82;;
59734;SDS011;64362;45.620;4.920;2022-10-26T15:43:22;13.18;;;4.65;;
59734;SDS011;64362;45.620;4.920;2022-10-26T15:45:48;12.32;;;4.35;;
59734;SDS011;64362;45.620;4.920;2022-10-26T15:48:23;9.75;;;4.32;;
59734;SDS011;64362;45.620;4.920;2022-10-26T15:50:53;10.77;;;3.80;;
59734;SDS011;64362;45.620;4.920;2022-10-26T15:53:22;12.50;;;4.97;;
59734;SDS011;64362;45.620;4.920;2022-10-26T15:55:52;11.15;;;4.10;;
59734;SDS011;64362;45.620;4.920;2022-10-26T15:58:18;14.23;;;4.78;;
59734;SDS011;64362;45.620;4.920;2022-10-26T16:00:44;13.68;;;4.97;;
59734;SDS011;64362;45.620;4.920;2022-10-26T16:03:13;11.88;;;4.15;;
59734;SDS011;64362;45.620;4.920;2022-10-26T16:05:40;11.32;;;4.32;;
59734;SDS011;64362;45.620;4.920;2022-10-26T16:08:07;11.20;;;4.38;;
59734;SDS011;64362;45.620;4.920;2022-10-26T16:10:36;15.32;;;5.18;;
59734;SDS011;64362;45.620;4.920;2022-10-26T16:13:01;12.15;;;4.80;;
59734;SDS011;64362;45.620;4.920;2022-10-26T16:15:27;14.27;;;4.20;;
59734;SDS011;64362;45.620;4.920;2022-10-26T16:17:52;12.85;;;5.15;;
59734;SDS011;64362;45.620;4.920;2022-10-26T16:20:19;11.20;;;5.63;;
59734;SDS011;64362;45.620;4.920;2022-10-26T16:22:47;11.60;;;4.43;;
59734;SDS011;64362;45.620;4.920;2022-10-26T16:25:14;10.88;;;5.00;;
59734;SDS011;64362;45.620;4.920;2022-10-26T16:27:40;14.20;;;5.15;;
59734;SDS011;64362;45.620;4.920;2022-10-26T16:30:06;12.70;;;4.68;;
59734;SDS011;64362;45.620;4.920;2022-10-26T16:32:32;12.88;;;4.68;;
59734;SDS011;64362;45.620;4.920;2022-10-26T16:34:57;12.25;;;4.65;;
59734;SDS011;64362;45.620;4.920;2022-10-26T16:37:23;11.82;;;4.45;;
59734;SDS011;64362;45.620;4.920;2022-10-26T16:39:48;12.38;;;4.95;;
59734;SDS011;64362;45.620;4.920;2022-10-26T16:42:13;10.52;;;4.43;;
59734;SDS011;64362;45.620;4.920;2022-10-26T16:44:39;17.75;;;5.10;;
59734;SDS011;64362;45.620;4.920;2022-10-26T16:47:04;15.15;;;4.60;;
59734;SDS011;64362;45.620;4.920;2022-10-26T16:49:30;13.73;;;4.63;;
59734;SDS011;64362;45.620;4.920;2022-10-26T16:51:55;17.42;;;5.18;;
59734;SDS011;64362;45.620;4.920;2022-10-26T16:54:21;10.85;;;4.40;;
59734;SDS011;64362;45.620;4.920;2022-10-26T16:56:47;14.30;;;4.50;;
59734;SDS011;64362;45.620;4.920;2022-10-26T16:59:13;11.63;;;4.22;;
59734;SDS011;64362;45.620;4.920;2022-10-26T17:01:39;15.88;;;5.10;;
59734;SDS011;64362;45.620;4.920;2022-10-26T17:04:04;13.82;;;4.97;;
59734;SDS011;64362;45.620;4.920;2022-10-26T17:06:30;11.73;;;4.28;;
59734;SDS011;64362;45.620;4.920;2022-10-26T17:08:55;8.27;;;4.32;;